sensor_id;sensor_type;location;lat;lon;timestamp;P1;durP1;ratioP1;P2;durP2;ratioP2
37771;SDS011;23610;59.380;24.642;2022-12-07T00:00:09;15.73;;;8.80;;
37771;SDS011;23610;59.380;24.642;2022-12-07T00:05:13;16.70;;;9.98;;
37771;SDS011;23610;59.380;24.642;2022-12-07T00:10:16;19.30;;;10.52;;
37771;SDS011;23610;59.380;24.642;2022-12-07T00:15:18;16.23;;;9.40;;
37771;SDS011;23610;59.380;24.642;2022-12-07T00:20:20;18.00;;;10.27;;
37771;SDS011;23610;59.380;24.642;2022-12-07T00:25:23;19.35;;;8.68;;
37771;SDS011;23610;59.380;24.642;2022-12-07T00:30:26;16.42;;;10.02;;
37771;SDS011;23610;59.380;24.642;2022-12-07T00:35:28;18.52;;;9.25;;
37771;SDS011;23610;59.380;24.642;2022-12-07T00:40:31;15.50;;;9.25;;
37771;SDS011;23610;59.380;24.642;2022-12-07T00:45:33;15.75;;;8.65;;
37771;SDS011;23610;59.380;24.642;2022-12-07T00:50:36;13.77;;;9.20;;
37771;SDS011;23610;59.380;24.642;2022-12-07T00:55:38;13.68;;;8.43;;
37771;SDS011;23610;59.380;24.642;2022-12-07T01:00:42;12.25;;;7.40;;
37771;SDS011;23610;59.380;24.642;2022-12-07T01:05:49;14.83;;;7.83;;
37771;SDS011;23610;59.380;24.642;2022-12-07T01:11:00;13.80;;;8.05;;
37771;SDS011;23610;59.380;24.642;2022-12-07T01:16:10;15.93;;;8.02;;
37771;SDS011;23610;59.380;24.642;2022-12-07T01:21:17;12.60;;;8.27;;
37771;SDS011;23610;59.380;24.642;2022-12-07T01:26:24;14.40;;;7.78;;
37771;SDS011;23610;59.380;24.642;2022-12-07T01:31:28;14.30;;;8.10;;
37771;SDS011;23610;59.380;24.642;2022-12-07T01:36:32;13.70;;;8.30;;
37771;SDS011;23610;59.380;24.642;2022-12-07T01:41:38;14.07;;;7.68;;
37771;SDS011;23610;59.380;24.642;2022-12-07T01:46:54;15.18;;;8.38;;
37771;SDS011;23610;59.380;24.642;2022-12-07T01:52:03;15.32;;;7.50;;
37771;SDS011;23610;59.380;24.642;2022-12-07T01:57:09;10.15;;;6.93;;
37771;SDS011;23610;59.380;24.642;2022-12-07T02:02:32;13.32;;;8.07;;
37771;SDS011;23610;59.380;24.642;2022-12-07T02:07:39;20.48;;;9.05;;
37771;SDS011;23610;59.380;24.642;2022-12-07T02:12:43;13.30;;;8.25;;
37771;SDS011;23610;59.380;24.642;2022-12-07T02:18:01;16.77;;;8.50;;
37771;SDS011;23610;59.380;24.642;2022-12-07T02:23:18;12.55;;;7.47;;
37771;SDS011;23610;59.380;24.642;2022-12-07T02:28:31;13.45;;;7.43;;
37771;SDS011;23610;59.380;24.642;2022-12-07T02:33:41;16.80;;;8.40;;
37771;SDS011;23610;59.380;24.642;2022-12-07T02:39:15;15.52;;;7.75;;
37771;SDS011;23610;59.380;24.642;2022-12-07T02:44:24;15.57;;;8.18;;
37771;SDS011;23610;59.380;24.642;2022-12-07T02:49:29;14.02;;;7.90;;
37771;SDS011;23610;59.380;24.642;2022-12-07T02:54:34;14.68;;;7.75;;
37771;SDS011;23610;59.380;24.642;2022-12-07T02:59:59;11.93;;;7.40;;
37771;SDS011;23610;59.380;24.642;2022-12-07T03:11:05;14.82;;;7.82;;
37771;SDS011;23610;59.380;24.642;2022-12-07T03:16:40;12.95;;;7.72;;
37771;SDS011;23610;59.380;24.642;2022-12-07T03:21:55;14.32;;;8.18;;
37771;SDS011;23610;59.380;24.642;2022-12-07T03:27:06;18.40;;;9.25;;
37771;SDS011;23610;59.380;24.642;2022-12-07T03:37:53;14.52;;;8.30;;
37771;SDS011;23610;59.380;24.642;2022-12-07T03:43:03;15.68;;;8.25;;
37771;SDS011;23610;59.380;24.642;2022-12-07T03:53:29;16.95;;;8.15;;
37771;SDS011;23610;59.380;24.642;2022-12-07T03:58:43;16.05;;;8.30;;
37771;SDS011;23610;59.380;24.642;2022-12-07T04:03:46;14.23;;;7.72;;
37771;SDS011;23610;59.380;24.642;2022-12-07T04:08:48;14.00;;;8.63;;
37771;SDS011;23610;59.380;24.642;2022-12-07T04:13:51;19.17;;;8.63;;
37771;SDS011;23610;59.380;24.642;2022-12-07T04:19:12;19.30;;;10.20;;
37771;SDS011;23610;59.380;24.642;2022-12-07T04:24:15;16.77;;;9.18;;
37771;SDS011;23610;59.380;24.642;2022-12-07T04:29:18;18.27;;;9.65;;
37771;SDS011;23610;59.380;24.642;2022-12-07T04:34:21;17.58;;;8.05;;
37771;SDS011;23610;59.380;24.642;2022-12-07T04:39:26;14.88;;;7.80;;
37771;SDS011;23610;59.380;24.642;2022-12-07T04:44:33;15.57;;;8.02;;
37771;SDS011;23610;59.380;24.642;2022-12-07T04:49:36;17.40;;;8.38;;
37771;SDS011;23610;59.380;24.642;2022-12-07T04:54:39;19.15;;;8.90;;
37771;SDS011;23610;59.380;24.642;2022-12-07T04:59:41;21.15;;;8.75;;
37771;SDS011;23610;59.380;24.642;2022-12-07T05:04:46;18.95;;;9.02;;
37771;SDS011;23610;59.380;24.642;2022-12-07T05:09:48;19.15;;;9.82;;
37771;SDS011;23610;59.380;24.642;2022-12-07T05:14:51;20.73;;;9.18;;
37771;SDS011;23610;59.380;24.642;2022-12-07T05:19:53;21.33;;;10.25;;
37771;SDS011;23610;59.380;24.642;2022-12-07T05:24:56;29.25;;;9.75;;
37771;SDS011;23610;59.380;24.642;2022-12-07T05:29:58;36.35;;;11.32;;
37771;SDS011;23610;59.380;24.642;2022-12-07T05:35:02;24.30;;;10.10;;
37771;SDS011;23610;59.380;24.642;2022-12-07T05:40:05;18.48;;;9.50;;
37771;SDS011;23610;59.380;24.642;2022-12-07T05:45:09;18.65;;;9.65;;
37771;SDS011;23610;59.380;24.642;2022-12-07T05:50:12;22.88;;;9.68;;
37771;SDS011;23610;59.380;24.642;2022-12-07T05:55:14;14.02;;;7.85;;
37771;SDS011;23610;59.380;24.642;2022-12-07T06:00:17;19.15;;;8.82;;
37771;SDS011;23610;59.380;24.642;2022-12-07T06:05:20;17.17;;;8.35;;
37771;SDS011;23610;59.380;24.642;2022-12-07T06:10:22;14.07;;;7.32;;
37771;SDS011;23610;59.380;24.642;2022-12-07T06:15:25;15.20;;;8.30;;
37771;SDS011;23610;59.380;24.642;2022-12-07T06:20:27;15.68;;;8.00;;
37771;SDS011;23610;59.380;24.642;2022-12-07T06:25:30;12.30;;;7.07;;
37771;SDS011;23610;59.380;24.642;2022-12-07T06:30:32;12.57;;;8.10;;
37771;SDS011;23610;59.380;24.642;2022-12-07T06:35:35;10.45;;;6.85;;
37771;SDS011;23610;59.380;24.642;2022-12-07T06:40:37;14.45;;;7.53;;
37771;SDS011;23610;59.380;24.642;2022-12-07T06:45:40;21.40;;;10.07;;
37771;SDS011;23610;59.380;24.642;2022-12-07T06:50:46;21.45;;;10.60;;
37771;SDS011;23610;59.380;24.642;2022-12-07T06:55:55;11.68;;;6.90;;
37771;SDS011;23610;59.380;24.642;2022-12-07T07:00:57;10.02;;;6.85;;
37771;SDS011;23610;59.380;24.642;2022-12-07T07:06:00;16.55;;;7.95;;
37771;SDS011;23610;59.380;24.642;2022-12-07T07:11:03;11.07;;;6.47;;
37771;SDS011;23610;59.380;24.642;2022-12-07T07:16:07;14.27;;;7.23;;
37771;SDS011;23610;59.380;24.642;2022-12-07T07:21:10;11.88;;;7.13;;
37771;SDS011;23610;59.380;24.642;2022-12-07T07:26:13;11.13;;;6.22;;
37771;SDS011;23610;59.380;24.642;2022-12-07T07:31:23;11.55;;;6.13;;
37771;SDS011;23610;59.380;24.642;2022-12-07T07:36:25;12.02;;;5.97;;
37771;SDS011;23610;59.380;24.642;2022-12-07T07:41:28;11.13;;;6.13;;
37771;SDS011;23610;59.380;24.642;2022-12-07T07:46:30;10.63;;;5.97;;
37771;SDS011;23610;59.380;24.642;2022-12-07T07:51:34;10.53;;;6.57;;
37771;SDS011;23610;59.380;24.642;2022-12-07T07:56:37;9.98;;;5.70;;
37771;SDS011;23610;59.380;24.642;2022-12-07T08:01:39;11.60;;;5.30;;
37771;SDS011;23610;59.380;24.642;2022-12-07T08:06:42;11.57;;;6.47;;
37771;SDS011;23610;59.380;24.642;2022-12-07T08:11:44;10.55;;;5.80;;
37771;SDS011;23610;59.380;24.642;2022-12-07T08:16:47;10.98;;;6.05;;
37771;SDS011;23610;59.380;24.642;2022-12-07T08:21:50;12.48;;;5.78;;
37771;SDS011;23610;59.380;24.642;2022-12-07T08:26:52;13.20;;;6.57;;
37771;SDS011;23610;59.380;24.642;2022-12-07T08:31:55;12.45;;;5.93;;
37771;SDS011;23610;59.380;24.642;2022-12-07T08:36:58;11.48;;;5.63;;
37771;SDS011;23610;59.380;24.642;2022-12-07T08:42:00;9.63;;;5.70;;
37771;SDS011;23610;59.380;24.642;2022-12-07T08:47:04;9.50;;;6.03;;
37771;SDS011;23610;59.380;24.642;2022-12-07T08:52:08;12.65;;;5.80;;
37771;SDS011;23610;59.380;24.642;2022-12-07T08:57:10;9.45;;;5.43;;
37771;SDS011;23610;59.380;24.642;2022-12-07T09:02:13;13.13;;;6.43;;
37771;SDS011;23610;59.380;24.642;2022-12-07T09:07:16;9.50;;;5.22;;
37771;SDS011;23610;59.380;24.642;2022-12-07T09:12:19;11.00;;;6.28;;
37771;SDS011;23610;59.380;24.642;2022-12-07T09:17:21;7.05;;;4.65;;
37771;SDS011;23610;59.380;24.642;2022-12-07T09:22:24;9.05;;;5.20;;
37771;SDS011;23610;59.380;24.642;2022-12-07T09:27:29;10.88;;;5.47;;
37771;SDS011;23610;59.380;24.642;2022-12-07T09:32:32;7.38;;;4.65;;
37771;SDS011;23610;59.380;24.642;2022-12-07T09:37:34;9.35;;;4.78;;
37771;SDS011;23610;59.380;24.642;2022-12-07T09:42:41;7.88;;;4.22;;
37771;SDS011;23610;59.380;24.642;2022-12-07T09:47:49;8.55;;;4.43;;
37771;SDS011;23610;59.380;24.642;2022-12-07T09:52:52;9.27;;;4.95;;
37771;SDS011;23610;59.380;24.642;2022-12-07T09:57:57;11.15;;;5.35;;
37771;SDS011;23610;59.380;24.642;2022-12-07T10:03:01;10.65;;;4.95;;
37771;SDS011;23610;59.380;24.642;2022-12-07T10:08:04;15.50;;;6.55;;
37771;SDS011;23610;59.380;24.642;2022-12-07T10:23:41;6.57;;;4.38;;
37771;SDS011;23610;59.380;24.642;2022-12-07T10:34:32;5.60;;;3.60;;
37771;SDS011;23610;59.380;24.642;2022-12-07T10:39:46;8.00;;;4.47;;
37771;SDS011;23610;59.380;24.642;2022-12-07T10:45:12;7.35;;;4.50;;
37771;SDS011;23610;59.380;24.642;2022-12-07T10:56:34;6.22;;;3.92;;
37771;SDS011;23610;59.380;24.642;2022-12-07T11:08:05;7.13;;;4.22;;
37771;SDS011;23610;59.380;24.642;2022-12-07T11:13:27;5.20;;;3.33;;
37771;SDS011;23610;59.380;24.642;2022-12-07T11:40:31;8.53;;;4.77;;
37771;SDS011;23610;59.380;24.642;2022-12-07T11:45:37;10.98;;;5.10;;
37771;SDS011;23610;59.380;24.642;2022-12-07T11:50:47;10.57;;;5.78;;
37771;SDS011;23610;59.380;24.642;2022-12-07T11:56:14;9.90;;;5.50;;
37771;SDS011;23610;59.380;24.642;2022-12-07T12:06:37;7.68;;;5.35;;
37771;SDS011;23610;59.380;24.642;2022-12-07T12:17:41;10.18;;;8.48;;
37771;SDS011;23610;59.380;24.642;2022-12-07T12:23:00;12.32;;;6.55;;
37771;SDS011;23610;59.380;24.642;2022-12-07T12:33:51;13.52;;;7.28;;
37771;SDS011;23610;59.380;24.642;2022-12-07T12:54:30;11.68;;;8.90;;
37771;SDS011;23610;59.380;24.642;2022-12-07T12:59:35;10.07;;;6.57;;
37771;SDS011;23610;59.380;24.642;2022-12-07T13:04:54;10.57;;;5.70;;
37771;SDS011;23610;59.380;24.642;2022-12-07T13:20:50;30.98;;;20.73;;
37771;SDS011;23610;59.380;24.642;2022-12-07T13:31:26;17.65;;;14.40;;
37771;SDS011;23610;59.380;24.642;2022-12-07T13:36:38;23.35;;;16.67;;
37771;SDS011;23610;59.380;24.642;2022-12-07T13:41:49;17.63;;;10.68;;
37771;SDS011;23610;59.380;24.642;2022-12-07T13:52:13;18.48;;;14.20;;
37771;SDS011;23610;59.380;24.642;2022-12-07T13:57:17;10.52;;;7.70;;
37771;SDS011;23610;59.380;24.642;2022-12-07T14:02:21;12.93;;;10.50;;
37771;SDS011;23610;59.380;24.642;2022-12-07T14:07:40;9.90;;;6.88;;
37771;SDS011;23610;59.380;24.642;2022-12-07T14:18:39;29.83;;;20.95;;
37771;SDS011;23610;59.380;24.642;2022-12-07T14:23:43;18.17;;;10.15;;
37771;SDS011;23610;59.380;24.642;2022-12-07T14:28:46;13.82;;;9.55;;
37771;SDS011;23610;59.380;24.642;2022-12-07T14:33:49;16.52;;;11.13;;
37771;SDS011;23610;59.380;24.642;2022-12-07T14:38:52;15.88;;;10.55;;
37771;SDS011;23610;59.380;24.642;2022-12-07T14:43:57;12.07;;;7.80;;
37771;SDS011;23610;59.380;24.642;2022-12-07T14:49:20;11.25;;;6.93;;
37771;SDS011;23610;59.380;24.642;2022-12-07T14:54:38;10.25;;;7.75;;
37771;SDS011;23610;59.380;24.642;2022-12-07T14:59:42;13.63;;;8.73;;
37771;SDS011;23610;59.380;24.642;2022-12-07T15:04:48;14.15;;;9.25;;
37771;SDS011;23610;59.380;24.642;2022-12-07T15:09:51;20.77;;;11.48;;
37771;SDS011;23610;59.380;24.642;2022-12-07T15:14:53;16.98;;;10.18;;
37771;SDS011;23610;59.380;24.642;2022-12-07T15:19:56;14.88;;;10.25;;
37771;SDS011;23610;59.380;24.642;2022-12-07T15:24:59;14.70;;;8.43;;
37771;SDS011;23610;59.380;24.642;2022-12-07T15:30:07;18.58;;;10.10;;
37771;SDS011;23610;59.380;24.642;2022-12-07T15:35:10;16.85;;;10.35;;
37771;SDS011;23610;59.380;24.642;2022-12-07T15:40:13;17.00;;;13.00;;
37771;SDS011;23610;59.380;24.642;2022-12-07T15:45:16;14.38;;;9.05;;
37771;SDS011;23610;59.380;24.642;2022-12-07T15:50:19;15.13;;;8.85;;
37771;SDS011;23610;59.380;24.642;2022-12-07T15:55:24;12.68;;;8.35;;
37771;SDS011;23610;59.380;24.642;2022-12-07T16:00:28;16.88;;;9.90;;
37771;SDS011;23610;59.380;24.642;2022-12-07T16:05:32;19.57;;;10.90;;
37771;SDS011;23610;59.380;24.642;2022-12-07T16:10:37;19.42;;;9.00;;
37771;SDS011;23610;59.380;24.642;2022-12-07T16:15:43;22.80;;;11.80;;
37771;SDS011;23610;59.380;24.642;2022-12-07T16:20:49;11.20;;;6.30;;
37771;SDS011;23610;59.380;24.642;2022-12-07T16:25:51;11.55;;;7.53;;
37771;SDS011;23610;59.380;24.642;2022-12-07T16:31:01;15.88;;;8.07;;
37771;SDS011;23610;59.380;24.642;2022-12-07T16:36:11;12.05;;;7.40;;
37771;SDS011;23610;59.380;24.642;2022-12-07T16:41:37;12.10;;;7.38;;
37771;SDS011;23610;59.380;24.642;2022-12-07T16:46:45;18.13;;;10.70;;
37771;SDS011;23610;59.380;24.642;2022-12-07T16:51:49;18.35;;;9.85;;
37771;SDS011;23610;59.380;24.642;2022-12-07T16:57:12;11.50;;;7.50;;
37771;SDS011;23610;59.380;24.642;2022-12-07T17:02:22;12.93;;;7.47;;
37771;SDS011;23610;59.380;24.642;2022-12-07T17:07:25;14.18;;;8.50;;
37771;SDS011;23610;59.380;24.642;2022-12-07T17:12:27;17.38;;;9.13;;
37771;SDS011;23610;59.380;24.642;2022-12-07T17:17:30;14.40;;;9.05;;
37771;SDS011;23610;59.380;24.642;2022-12-07T17:22:33;19.35;;;9.45;;
37771;SDS011;23610;59.380;24.642;2022-12-07T17:27:36;13.85;;;8.18;;
37771;SDS011;23610;59.380;24.642;2022-12-07T17:32:40;20.00;;;10.13;;
37771;SDS011;23610;59.380;24.642;2022-12-07T17:37:46;19.60;;;10.18;;
37771;SDS011;23610;59.380;24.642;2022-12-07T17:47:54;19.50;;;9.40;;
37771;SDS011;23610;59.380;24.642;2022-12-07T17:52:56;13.43;;;7.30;;
37771;SDS011;23610;59.380;24.642;2022-12-07T17:58:11;17.13;;;7.75;;
37771;SDS011;23610;59.380;24.642;2022-12-07T18:03:13;14.30;;;7.05;;
37771;SDS011;23610;59.380;24.642;2022-12-07T18:08:16;13.40;;;6.40;;
37771;SDS011;23610;59.380;24.642;2022-12-07T18:13:19;14.98;;;7.45;;
37771;SDS011;23610;59.380;24.642;2022-12-07T18:18:37;21.80;;;9.52;;
37771;SDS011;23610;59.380;24.642;2022-12-07T18:23:40;15.70;;;7.40;;
37771;SDS011;23610;59.380;24.642;2022-12-07T18:28:45;21.63;;;9.13;;
37771;SDS011;23610;59.380;24.642;2022-12-07T18:33:48;16.33;;;6.40;;
37771;SDS011;23610;59.380;24.642;2022-12-07T18:38:51;12.57;;;7.10;;
37771;SDS011;23610;59.380;24.642;2022-12-07T18:43:54;13.30;;;6.68;;
37771;SDS011;23610;59.380;24.642;2022-12-07T18:48:56;14.77;;;7.53;;
37771;SDS011;23610;59.380;24.642;2022-12-07T18:53:59;17.20;;;7.85;;
37771;SDS011;23610;59.380;24.642;2022-12-07T18:59:03;13.32;;;6.88;;
37771;SDS011;23610;59.380;24.642;2022-12-07T19:04:25;10.70;;;6.72;;
37771;SDS011;23610;59.380;24.642;2022-12-07T19:09:27;18.15;;;8.23;;
37771;SDS011;23610;59.380;24.642;2022-12-07T19:14:36;14.82;;;7.95;;
37771;SDS011;23610;59.380;24.642;2022-12-07T19:19:42;15.77;;;7.43;;
37771;SDS011;23610;59.380;24.642;2022-12-07T19:24:51;13.38;;;7.15;;
37771;SDS011;23610;59.380;24.642;2022-12-07T19:29:55;12.43;;;7.07;;
37771;SDS011;23610;59.380;24.642;2022-12-07T19:34:58;13.02;;;7.38;;
37771;SDS011;23610;59.380;24.642;2022-12-07T19:40:02;8.93;;;6.30;;
37771;SDS011;23610;59.380;24.642;2022-12-07T19:45:06;11.45;;;7.65;;
37771;SDS011;23610;59.380;24.642;2022-12-07T19:50:09;15.00;;;7.43;;
37771;SDS011;23610;59.380;24.642;2022-12-07T19:55:12;13.32;;;7.82;;
37771;SDS011;23610;59.380;24.642;2022-12-07T20:00:14;17.05;;;7.45;;
37771;SDS011;23610;59.380;24.642;2022-12-07T20:05:17;16.85;;;8.80;;
37771;SDS011;23610;59.380;24.642;2022-12-07T20:10:20;16.08;;;8.60;;
37771;SDS011;23610;59.380;24.642;2022-12-07T20:15:26;17.17;;;7.68;;
37771;SDS011;23610;59.380;24.642;2022-12-07T20:20:29;17.48;;;9.02;;
37771;SDS011;23610;59.380;24.642;2022-12-07T20:25:34;16.27;;;7.15;;
37771;SDS011;23610;59.380;24.642;2022-12-07T20:30:44;12.70;;;6.57;;
37771;SDS011;23610;59.380;24.642;2022-12-07T20:35:51;14.20;;;7.70;;
37771;SDS011;23610;59.380;24.642;2022-12-07T20:41:06;16.65;;;8.57;;
37771;SDS011;23610;59.380;24.642;2022-12-07T20:46:46;10.40;;;6.07;;
37771;SDS011;23610;59.380;24.642;2022-12-07T20:51:49;15.75;;;7.93;;
37771;SDS011;23610;59.380;24.642;2022-12-07T20:56:52;12.15;;;6.45;;
37771;SDS011;23610;59.380;24.642;2022-12-07T21:01:54;11.13;;;6.00;;
37771;SDS011;23610;59.380;24.642;2022-12-07T21:06:57;12.38;;;7.18;;
37771;SDS011;23610;59.380;24.642;2022-12-07T21:12:00;10.60;;;7.20;;
37771;SDS011;23610;59.380;24.642;2022-12-07T21:17:02;11.00;;;6.20;;
37771;SDS011;23610;59.380;24.642;2022-12-07T21:22:05;11.32;;;6.07;;
37771;SDS011;23610;59.380;24.642;2022-12-07T21:27:08;11.75;;;6.43;;
37771;SDS011;23610;59.380;24.642;2022-12-07T21:32:11;17.55;;;7.70;;
37771;SDS011;23610;59.380;24.642;2022-12-07T21:37:15;9.82;;;5.80;;
37771;SDS011;23610;59.380;24.642;2022-12-07T21:42:17;13.68;;;6.07;;
37771;SDS011;23610;59.380;24.642;2022-12-07T21:47:20;10.50;;;5.82;;
37771;SDS011;23610;59.380;24.642;2022-12-07T21:52:23;9.35;;;5.43;;
37771;SDS011;23610;59.380;24.642;2022-12-07T21:57:25;8.77;;;5.65;;
37771;SDS011;23610;59.380;24.642;2022-12-07T22:02:28;10.18;;;5.18;;
37771;SDS011;23610;59.380;24.642;2022-12-07T22:07:31;13.43;;;6.15;;
37771;SDS011;23610;59.380;24.642;2022-12-07T22:12:34;9.63;;;5.22;;
37771;SDS011;23610;59.380;24.642;2022-12-07T22:17:37;9.63;;;5.38;;
37771;SDS011;23610;59.380;24.642;2022-12-07T22:22:39;10.57;;;4.63;;
37771;SDS011;23610;59.380;24.642;2022-12-07T22:27:42;8.23;;;4.97;;
37771;SDS011;23610;59.380;24.642;2022-12-07T22:32:46;9.90;;;5.28;;
37771;SDS011;23610;59.380;24.642;2022-12-07T22:37:50;8.15;;;4.40;;
37771;SDS011;23610;59.380;24.642;2022-12-07T22:42:54;8.73;;;5.10;;
37771;SDS011;23610;59.380;24.642;2022-12-07T22:48:00;9.40;;;4.57;;
37771;SDS011;23610;59.380;24.642;2022-12-07T22:53:04;7.57;;;4.83;;
37771;SDS011;23610;59.380;24.642;2022-12-07T22:58:08;11.70;;;4.63;;
37771;SDS011;23610;59.380;24.642;2022-12-07T23:03:25;8.38;;;3.97;;
37771;SDS011;23610;59.380;24.642;2022-12-07T23:08:30;11.23;;;5.18;;
37771;SDS011;23610;59.380;24.642;2022-12-07T23:13:34;9.00;;;4.82;;
37771;SDS011;23610;59.380;24.642;2022-12-07T23:23:44;8.75;;;5.07;;
37771;SDS011;23610;59.380;24.642;2022-12-07T23:28:48;13.43;;;4.75;;
37771;SDS011;23610;59.380;24.642;2022-12-07T23:33:52;11.40;;;4.57;;
37771;SDS011;23610;59.380;24.642;2022-12-07T23:38:56;10.15;;;4.10;;
37771;SDS011;23610;59.380;24.642;2022-12-07T23:49:04;8.25;;;4.32;;
37771;SDS011;23610;59.380;24.642;2022-12-07T23:54:09;7.20;;;4.28;;
37771;SDS011;23610;59.380;24.642;2022-12-07T23:59:14;8.13;;;4.50;;
